Time;durP1;ratioP1;P1;durP2;ratioP2;P2;SDS_P1;SDS_P2;PMS_P1;PMS_P2;Temp;Humidity;BMP_temperature;BMP_pressure;BME280_temperature;BME280_humidity;BME280_pressure;Samples;Min_cycle;Max_cycle;Signal;HPM_P1;HPM_P2
2022/08/28 00:01:28;;;;;;;11.00;4.93;;;;;;;15.51;73.68;100543.34;5088819;28;20480;-62
2022/08/28 00:03:54;;;;;;;8.60;4.63;;;;;;;15.47;73.63;100541.13;5086141;28;20448;-62
2022/08/28 00:06:21;;;;;;;14.07;4.97;;;;;;;15.40;74.04;100546.34;5086636;28;20480;-62
2022/08/28 00:08:49;;;;;;;10.60;4.43;;;;;;;15.39;74.02;100545.50;5094183;28;20448;-62
2022/08/28 00:11:16;;;;;;;18.50;4.53;;;;;;;15.36;74.23;100548.53;5089039;28;20483;-62
2022/08/28 00:13:43;;;;;;;14.07;4.87;;;;;;;15.36;74.54;100555.75;5086821;28;20515;-62
2022/08/28 00:16:10;;;;;;;10.57;4.00;;;;;;;15.32;74.63;100551.72;5094856;28;20583;-63
2022/08/28 00:18:36;;;;;;;10.97;4.70;;;;;;;15.32;74.50;100547.16;5079095;28;20436;-63
2022/08/28 00:21:04;;;;;;;14.67;4.70;;;;;;;15.31;74.59;100553.56;5089161;28;20478;-63
2022/08/28 00:23:31;;;;;;;9.37;4.50;;;;;;;15.30;74.65;100556.44;5081515;28;20436;-62
2022/08/28 00:26:00;;;;;;;8.60;4.30;;;;;;;15.25;75.44;100554.22;5078564;28;20557;-62
2022/08/28 00:28:25;;;;;;;9.10;4.47;;;;;;;15.23;75.68;100550.84;5089422;28;21025;-62
2022/08/28 00:30:54;;;;;;;7.20;4.27;;;;;;;15.19;75.80;100553.03;5096579;28;20463;-62
2022/08/28 00:33:23;;;;;;;16.73;4.90;;;;;;;15.20;75.62;100553.88;5081456;28;20209;-62
2022/08/28 00:35:51;;;;;;;9.10;4.47;;;;;;;15.18;75.81;100550.50;5097092;28;20508;-62
2022/08/28 00:38:19;;;;;;;16.33;4.63;;;;;;;15.13;75.84;100542.06;5095894;28;20436;-62
2022/08/28 00:40:47;;;;;;;15.43;5.03;;;;;;;15.12;75.97;100548.44;5084318;28;20482;-61
2022/08/28 00:43:26;;;;;;;13.80;4.90;;;;;;;15.14;76.14;100541.06;5098724;28;20894;-61
2022/08/28 00:45:53;;;;;;;6.87;4.60;;;;;;;15.14;75.79;100536.50;5088868;28;20474;-61
2022/08/28 00:48:19;;;;;;;12.23;4.43;;;;;;;15.13;75.89;100544.75;5096613;28;20463;-61
2022/08/28 00:53:30;;;;;;;12.13;5.37;;;;;;;15.08;75.88;100542.53;5099908;28;20482;-61
2022/08/28 00:55:58;;;;;;;12.27;4.93;;;;;;;15.05;75.74;100543.72;5079336;28;20486;-61
2022/08/28 00:58:26;;;;;;;10.10;5.37;;;;;;;15.00;76.04;100540.69;5081588;28;20440;-62
2022/08/28 01:00:52;;;;;;;8.20;4.13;;;;;;;14.95;76.07;100540.31;5086888;28;20479;-62
2022/08/28 01:03:19;;;;;;;15.50;4.40;;;;;;;14.93;76.44;100539.63;5099489;28;20455;-63
2022/08/28 01:05:48;;;;;;;18.83;4.50;;;;;;;14.93;76.34;100536.09;5100546;28;20514;-62
2022/08/28 01:08:14;;;;;;;12.53;5.57;;;;;;;14.90;76.11;100537.25;5100659;28;20427;-62
2022/08/28 01:10:42;;;;;;;14.33;5.30;;;;;;;14.87;76.56;100537.59;5097516;28;20550;-63
2022/08/28 01:13:09;;;;;;;7.80;4.40;;;;;;;14.92;76.45;100543.31;5093156;28;20534;-62
2022/08/28 01:15:38;;;;;;;10.77;4.63;;;;;;;14.89;76.49;100540.94;5100551;28;20469;-62
2022/08/28 01:18:06;;;;;;;10.27;4.23;;;;;;;14.87;76.41;100542.97;5103427;28;20463;-62
2022/08/28 01:20:34;;;;;;;12.13;4.90;;;;;;;14.82;77.05;100543.44;5101923;28;20489;-62
2022/08/28 01:23:07;;;;;;;10.10;4.83;;;;;;;14.87;77.03;100540.28;5096078;28;20448;-62
2022/08/28 01:25:36;;;;;;;9.73;4.73;;;;;;;14.96;76.73;100539.28;5095458;28;20467;-62
2022/08/28 01:28:05;;;;;;;11.77;5.57;;;;;;;15.00;76.66;100537.16;5088264;28;20534;-62
2022/08/28 01:30:31;;;;;;;11.97;5.07;;;;;;;15.02;76.55;100540.50;5085056;28;20471;-62
2022/08/28 01:32:59;;;;;;;11.67;4.97;;;;;;;15.13;76.29;100547.44;5084465;28;20917;-62
2022/08/28 01:35:30;;;;;;;16.40;5.70;;;;;;;15.19;76.53;100544.94;5092779;28;20450;-61
2022/08/28 01:37:57;;;;;;;10.57;5.13;;;;;;;15.23;75.91;100553.53;5104816;28;20483;-62
2022/08/28 01:40:28;;;;;;;13.07;4.80;;;;;;;15.27;76.07;100548.66;5101365;28;20925;-63
2022/08/28 01:42:56;;;;;;;13.87;5.00;;;;;;;15.35;75.84;100548.69;5102864;28;20475;-63
2022/08/28 01:45:25;;;;;;;17.30;5.40;;;;;;;15.35;75.79;100560.31;5094625;28;20474;-63
2022/08/28 01:47:51;;;;;;;11.93;5.30;;;;;;;15.37;75.67;100562.84;5084215;28;21015;-62
2022/08/28 01:50:20;;;;;;;8.40;4.60;;;;;;;15.35;75.30;100560.31;5084544;28;20435;-62
2022/08/28 01:52:47;;;;;;;10.00;5.17;;;;;;;15.27;75.43;100559.44;5091367;28;20892;-63
2022/08/28 01:55:13;;;;;;;12.53;5.60;;;;;;;15.23;75.87;100562.47;5099833;28;20508;-62
2022/08/28 01:57:48;;;;;;;11.13;5.00;;;;;;;15.18;75.93;100563.97;5100283;28;20474;-63
2022/08/28 02:00:17;;;;;;;9.27;4.67;;;;;;;15.09;76.12;100560.41;5095870;28;20493;-62
2022/08/28 02:02:44;;;;;;;15.70;4.60;;;;;;;15.01;76.79;100557.66;5084100;28;20472;-61
2022/08/28 02:05:11;;;;;;;13.50;5.53;;;;;;;14.98;76.66;100556.16;5084305;28;20532;-61
2022/08/28 02:07:38;;;;;;;19.30;5.40;;;;;;;14.86;76.94;100554.75;5091184;28;20458;-60
2022/08/28 02:10:06;;;;;;;10.77;4.47;;;;;;;14.72;77.31;100569.66;5082779;28;20502;-61
2022/08/28 02:12:33;;;;;;;14.67;5.57;;;;;;;14.73;77.34;100562.41;5072423;28;20503;-61
2022/08/28 02:15:00;;;;;;;11.87;4.93;;;;;;;14.63;77.58;100559.81;5079127;28;20452;-60
2022/08/28 02:17:28;;;;;;;12.17;4.90;;;;;;;14.60;78.10;100565.53;5085477;28;20482;-61
2022/08/28 02:19:54;;;;;;;11.50;4.30;;;;;;;14.60;77.99;100565.53;5085811;28;20444;-61
2022/08/28 02:22:21;;;;;;;7.90;4.70;;;;;;;14.60;78.20;100570.91;5102275;28;20495;-62
2022/08/28 02:24:48;;;;;;;7.97;4.47;;;;;;;14.56;78.15;100575.72;5101005;28;20447;-62
2022/08/28 02:27:14;;;;;;;8.83;4.97;;;;;;;14.54;78.43;100574.22;5102702;28;20510;-62
2022/08/28 02:29:41;;;;;;;9.73;4.70;;;;;;;14.52;78.31;100576.22;5098975;28;20450;-62
2022/08/28 02:32:08;;;;;;;13.53;5.23;;;;;;;14.48;78.53;100576.53;5083352;28;20518;-62
2022/08/28 02:34:36;;;;;;;14.70;6.27;;;;;;;14.45;78.57;100576.84;5083963;28;20477;-62
2022/08/28 02:37:04;;;;;;;11.73;5.60;;;;;;;14.45;78.68;100578.69;5102717;28;20549;-62
2022/08/28 02:39:30;;;;;;;11.10;4.97;;;;;;;14.42;79.12;100571.78;5089371;28;20459;-62
2022/08/28 02:41:57;;;;;;;11.67;4.67;;;;;;;14.41;79.19;100571.94;5083665;28;20478;-63
2022/08/28 02:44:24;;;;;;;12.10;5.20;;;;;;;14.33;79.44;100578.09;5084629;28;20533;-62
2022/08/28 02:46:51;;;;;;;13.20;5.50;;;;;;;14.32;79.05;100571.03;5083466;28;21231;-62
2022/08/28 02:49:18;;;;;;;16.40;6.07;;;;;;;14.35;79.41;100572.56;5095534;28;20490;-62
2022/08/28 02:51:46;;;;;;;9.57;5.30;;;;;;;14.34;79.48;100570.88;5083770;28;20490;-63
2022/08/28 02:54:13;;;;;;;10.57;5.70;;;;;;;14.36;79.49;100571.59;5081334;28;20456;-63
2022/08/28 02:56:39;;;;;;;13.60;5.90;;;;;;;14.35;79.61;100567.19;5098079;28;20486;-62
2022/08/28 02:59:06;;;;;;;10.13;5.20;;;;;;;14.32;79.61;100576.41;5082163;28;20467;-63
2022/08/28 03:01:33;;;;;;;10.70;5.60;;;;;;;14.35;79.47;100573.41;5086311;28;20482;-62
2022/08/28 03:04:01;;;;;;;10.30;5.83;;;;;;;14.29;79.17;100574.88;5091995;28;20455;-63
2022/08/28 03:06:28;;;;;;;11.47;5.27;;;;;;;14.18;79.67;100580.50;5087290;28;20480;-63
2022/08/28 03:08:56;;;;;;;10.03;6.00;;;;;;;14.20;79.65;100591.09;5082267;28;20466;-64
2022/08/28 03:11:23;;;;;;;12.80;5.53;;;;;;;14.08;80.22;100577.91;5099062;28;20554;-62
2022/08/28 03:13:50;;;;;;;13.10;4.87;;;;;;;14.13;80.33;100581.00;5102062;28;20992;-61
2022/08/28 03:16:17;;;;;;;14.43;5.80;;;;;;;14.11;80.62;100582.13;5088807;28;20496;-63
2022/08/28 03:18:44;;;;;;;11.77;5.50;;;;;;;14.13;80.57;100585.53;5086582;28;20475;-62
2022/08/28 03:21:11;;;;;;;12.90;6.70;;;;;;;14.17;80.71;100591.44;5088624;28;20484;-63
2022/08/28 03:23:37;;;;;;;11.73;5.30;;;;;;;14.20;80.31;100593.78;5081822;28;20440;-62
2022/08/28 03:26:07;;;;;;;9.50;5.20;;;;;;;14.18;80.43;100587.72;5096702;28;20467;-62
2022/08/28 03:28:37;;;;;;;12.20;5.63;;;;;;;14.15;80.38;100588.91;5102241;28;20792;-62
2022/08/28 03:31:05;;;;;;;13.37;5.90;;;;;;;14.15;80.41;100586.22;5088689;28;20487;-62
2022/08/28 03:33:32;;;;;;;9.50;5.67;;;;;;;14.21;80.43;100582.88;5092173;28;21075;-62
2022/08/28 03:35:59;;;;;;;7.60;5.23;;;;;;;14.24;80.64;100581.75;5084653;28;21090;-62
2022/08/28 03:38:26;;;;;;;11.20;5.27;;;;;;;14.25;80.27;100578.03;5080946;28;20860;-62
2022/08/28 03:40:53;;;;;;;11.73;5.23;;;;;;;14.31;80.19;100586.31;5080720;28;20487;-62
2022/08/28 03:43:24;;;;;;;10.43;5.03;;;;;;;14.37;80.07;100579.47;5081692;28;20892;-62
2022/08/28 03:45:52;;;;;;;15.60;5.23;;;;;;;14.29;79.98;100577.56;5090580;28;20545;-62
2022/08/28 03:48:20;;;;;;;13.73;7.20;;;;;;;14.32;80.02;100574.56;5082048;28;20470;-62
2022/08/28 03:50:47;;;;;;;8.60;5.23;;;;;;;14.42;79.67;100581.69;5098676;28;20483;-61
2022/08/28 03:53:13;;;;;;;16.23;5.97;;;;;;;14.38;80.01;100581.16;5095315;28;20486;-62
2022/08/28 03:55:41;;;;;;;10.13;5.73;;;;;;;14.39;79.85;100582.00;5087431;28;20490;-62
2022/08/28 03:58:07;;;;;;;11.10;6.03;;;;;;;14.41;79.72;100571.94;5082687;28;20428;-63
2022/08/28 04:00:36;;;;;;;13.13;5.83;;;;;;;14.29;80.10;100585.66;5091810;28;20470;-63
2022/08/28 04:03:03;;;;;;;12.33;5.37;;;;;;;14.31;79.88;100583.63;5100741;28;20443;-63
2022/08/28 04:05:29;;;;;;;13.63;5.63;;;;;;;14.24;80.14;100582.56;5089468;28;20460;-63
2022/08/28 04:07:56;;;;;;;12.53;6.47;;;;;;;14.27;79.58;100579.59;5083933;28;20435;-63
2022/08/28 04:10:23;;;;;;;9.80;6.10;;;;;;;14.23;79.75;100586.25;5081398;28;20456;-63
2022/08/28 04:12:49;;;;;;;14.60;5.17;;;;;;;14.17;80.29;100583.38;5081559;28;20475;-62
2022/08/28 04:15:16;;;;;;;14.10;5.80;;;;;;;14.18;80.32;100582.34;5082448;28;20435;-62
2022/08/28 04:17:44;;;;;;;12.53;5.23;;;;;;;14.12;80.78;100597.28;5098469;28;20451;-62
2022/08/28 04:20:11;;;;;;;14.20;6.60;;;;;;;14.14;80.17;100595.28;5094819;28;21036;-63
2022/08/28 04:22:38;;;;;;;13.37;5.00;;;;;;;14.12;80.60;100594.59;5085204;28;20912;-63
2022/08/28 04:25:06;;;;;;;16.10;5.30;;;;;;;14.23;80.34;100601.56;5100766;28;20486;-63
2022/08/28 04:27:33;;;;;;;9.70;4.83;;;;;;;14.26;79.94;100602.09;5100387;28;20482;-63
2022/08/28 04:29:59;;;;;;;9.60;4.70;;;;;;;14.25;79.79;100605.78;5097211;28;20443;-63
2022/08/28 04:32:26;;;;;;;13.23;6.00;;;;;;;14.23;79.86;100601.56;5095812;28;20482;-63
2022/08/28 04:34:54;;;;;;;12.20;4.90;;;;;;;14.21;79.84;100607.09;5096399;28;20447;-63
2022/08/28 04:37:21;;;;;;;9.80;4.80;;;;;;;14.22;79.73;100605.25;5080522;28;20507;-63
2022/08/28 04:39:47;;;;;;;10.83;4.30;;;;;;;14.24;79.64;100608.63;5088051;28;20956;-63
2022/08/28 04:42:14;;;;;;;15.73;5.03;;;;;;;14.26;79.73;100607.47;5087001;28;20567;-63
2022/08/28 04:44:41;;;;;;;10.13;4.20;;;;;;;14.40;79.47;100613.28;5085734;28;20495;-63
2022/08/28 04:47:07;;;;;;;9.40;5.10;;;;;;;14.40;79.41;100613.28;5095554;28;20521;-63
2022/08/28 04:49:35;;;;;;;9.23;4.70;;;;;;;14.50;79.24;100606.81;5089186;28;20441;-63
2022/08/28 04:52:04;;;;;;;9.20;4.67;;;;;;;14.35;79.27;100612.91;5101597;28;20589;-63
2022/08/28 04:54:32;;;;;;;8.63;4.70;;;;;;;14.54;78.66;100620.78;5094922;28;20672;-62
2022/08/28 04:56:59;;;;;;;13.67;5.30;;;;;;;14.55;78.69;100627.88;5102838;28;20514;-63
2022/08/28 04:59:26;;;;;;;13.13;4.40;;;;;;;14.64;78.38;100621.56;5102819;28;20447;-62
2022/08/28 05:01:53;;;;;;;14.73;4.70;;;;;;;14.69;78.08;100623.78;5095164;28;20585;-62
2022/08/28 05:04:19;;;;;;;15.43;5.20;;;;;;;14.73;78.00;100630.53;5102804;28;20485;-62
2022/08/28 05:06:46;;;;;;;14.80;4.87;;;;;;;14.70;78.29;100625.47;5099038;28;20514;-62
2022/08/28 05:09:15;;;;;;;11.03;5.20;;;;;;;14.74;78.17;100629.53;5085987;28;20456;-62
2022/08/28 05:11:43;;;;;;;11.77;4.80;;;;;;;14.82;77.89;100628.75;5098341;28;20470;-63
2022/08/28 05:14:10;;;;;;;10.33;4.10;;;;;;;14.97;77.64;100629.84;5102672;28;20601;-63
2022/08/28 05:16:42;;;;;;;10.27;3.90;;;;;;;15.18;77.08;100634.81;5091511;28;20467;-63
2022/08/28 05:19:09;;;;;;;11.80;4.33;;;;;;;15.17;76.85;100629.59;5103196;28;20459;-62
2022/08/28 05:21:37;;;;;;;9.63;4.13;;;;;;;15.17;76.01;100635.84;5087758;28;20476;-62
2022/08/28 05:24:05;;;;;;;10.53;4.07;;;;;;;15.06;77.12;100636.94;5088509;28;20448;-62
2022/08/28 05:26:33;;;;;;;9.47;4.73;;;;;;;15.18;76.12;100636.69;5094871;28;20689;-62
2022/08/28 05:29:00;;;;;;;9.90;4.17;;;;;;;15.26;75.94;100636.72;5085526;28;20443;-63
2022/08/28 05:31:29;;;;;;;10.83;3.80;;;;;;;15.30;75.92;100642.63;5086292;28;20479;-63
2022/08/28 05:33:56;;;;;;;12.87;4.00;;;;;;;15.29;75.51;100633.69;5103082;28;20515;-63
2022/08/28 05:36:23;;;;;;;14.03;3.93;;;;;;;15.43;74.46;100635.78;5099923;28;20502;-63
2022/08/28 05:38:50;;;;;;;7.87;3.83;;;;;;;15.47;74.44;100630.91;5104186;28;20431;-63
2022/08/28 05:41:19;;;;;;;9.37;3.90;;;;;;;15.59;74.82;100647.63;5084610;28;20486;-63
2022/08/28 05:43:47;;;;;;;8.43;3.37;;;;;;;15.69;73.64;100639.38;5084557;28;20475;-63
2022/08/28 05:46:14;;;;;;;5.00;3.50;;;;;;;15.68;73.88;100640.41;5084092;28;20489;-62
2022/08/28 05:48:42;;;;;;;8.77;3.90;;;;;;;15.71;73.14;100640.94;5096145;28;20439;-63
2022/08/28 05:51:11;;;;;;;7.27;3.23;;;;;;;15.80;73.38;100639.97;5090847;28;21104;-62
2022/08/28 05:53:40;;;;;;;11.37;4.30;;;;;;;16.02;72.48;100643.00;5096423;28;20479;-63
2022/08/28 05:56:07;;;;;;;9.67;3.40;;;;;;;16.03;72.48;100649.28;5087211;28;20554;-63
2022/08/28 05:58:34;;;;;;;9.40;4.07;;;;;;;15.95;72.50;100650.09;5086013;28;20481;-62
2022/08/28 06:01:07;;;;;;;7.50;2.77;;;;;;;16.09;71.93;100654.84;5100017;28;20862;-62
2022/08/28 06:03:34;;;;;;;9.77;3.37;;;;;;;16.23;71.22;100647.94;5085872;28;20574;-63
2022/08/28 06:06:01;;;;;;;7.80;3.73;;;;;;;16.26;71.15;100650.28;5088048;28;20500;-62
2022/08/28 06:08:28;;;;;;;5.23;2.93;;;;;;;16.37;70.87;100646.44;5092265;28;20479;-62
2022/08/28 06:10:56;;;;;;;7.37;3.93;;;;;;;16.33;71.11;100645.06;5093601;28;20920;-62
2022/08/28 06:13:23;;;;;;;9.23;3.57;;;;;;;16.63;70.33;100653.47;5089212;28;21049;-67
2022/08/28 06:15:49;;;;;;;14.63;3.13;;;;;;;17.04;68.86;100642.66;5098616;28;20499;-67
2022/08/28 06:18:18;;;;;;;16.90;4.40;;;;;;;17.28;68.40;100649.84;5096924;28;20479;-68
2022/08/28 06:20:46;;;;;;;9.47;3.50;;;;;;;17.98;64.73;100650.84;5097576;28;20475;-67
2022/08/28 06:23:15;;;;;;;6.33;2.73;;;;;;;18.28;63.70;100649.13;5092451;28;20483;-67
2022/08/28 06:25:45;;;;;;;8.50;2.67;;;;;;;18.62;62.70;100661.34;5101368;28;20471;-67
2022/08/28 06:28:13;;;;;;;11.43;3.23;;;;;;;19.24;59.41;100660.22;5101498;28;20459;-65
2022/08/28 06:30:42;;;;;;;10.53;4.17;;;;;;;19.62;58.20;100661.97;5093867;28;20501;-66
2022/08/28 06:33:09;;;;;;;9.03;3.00;;;;;;;19.66;58.03;100661.38;5099882;28;20458;-66
2022/08/28 06:35:41;;;;;;;9.17;2.60;;;;;;;19.10;59.91;100672.75;5086693;28;20475;-65
2022/08/28 06:38:08;;;;;;;20.33;3.40;;;;;;;18.66;61.77;100678.06;5094918;28;21015;-67
2022/08/28 06:40:39;;;;;;;7.47;2.90;;;;;;;18.86;60.16;100679.25;5093015;28;20495;-66
2022/08/28 06:43:06;;;;;;;6.93;2.73;;;;;;;19.28;59.09;100675.06;5096228;28;20535;-66
2022/08/28 06:45:32;;;;;;;12.17;3.30;;;;;;;19.56;58.32;100677.97;5085449;28;20478;-66
2022/08/28 06:47:59;;;;;;;7.40;2.83;;;;;;;20.05;57.29;100684.63;5093867;28;20479;-67
2022/08/28 06:50:26;;;;;;;6.60;2.60;;;;;;;19.98;56.85;100669.28;5101961;28;20432;-67
2022/08/28 06:52:54;;;;;;;13.87;2.70;;;;;;;21.43;53.34;100674.22;5098739;28;20459;-67
2022/08/28 06:55:20;;;;;;;11.50;2.90;;;;;;;22.11;50.72;100675.34;5087226;28;20491;-67
2022/08/28 06:57:47;;;;;;;16.07;2.47;;;;;;;21.81;51.52;100671.06;5102783;28;20770;-68
2022/08/28 07:00:14;;;;;;;5.70;2.80;;;;;;;20.92;53.27;100682.72;5096715;28;20476;-67
2022/08/28 07:02:42;;;;;;;17.93;2.50;;;;;;;20.95;53.64;100679.56;5082346;28;20439;-67
2022/08/28 07:05:09;;;;;;;11.63;2.40;;;;;;;20.99;52.54;100688.19;5083225;28;21021;-67
2022/08/28 07:07:35;;;;;;;5.93;2.33;;;;;;;20.64;54.21;100683.53;5082606;28;20472;-67
2022/08/28 07:10:04;;;;;;;6.03;2.40;;;;;;;20.44;53.76;100679.78;5092475;28;20451;-66
2022/08/28 07:12:31;;;;;;;4.93;2.10;;;;;;;20.68;53.76;100684.00;5089773;28;21013;-67
2022/08/28 07:14:57;;;;;;;8.30;2.53;;;;;;;20.71;53.52;100690.91;5097197;28;20985;-66
2022/08/28 07:17:24;;;;;;;8.10;2.70;;;;;;;20.63;54.04;100684.56;5083886;28;20487;-67
2022/08/28 07:19:51;;;;;;;7.90;2.90;;;;;;;20.92;53.16;100692.72;5091828;28;20835;-67
2022/08/28 07:22:17;;;;;;;7.00;2.37;;;;;;;21.24;52.33;100697.56;5089661;28;20479;-67
2022/08/28 07:24:44;;;;;;;6.07;2.00;;;;;;;22.09;49.30;100694.59;5086071;28;20479;-67
2022/08/28 07:27:12;;;;;;;7.50;2.40;;;;;;;22.23;49.00;100681.03;5081447;28;20476;-67
2022/08/28 07:29:39;;;;;;;5.00;1.97;;;;;;;21.98;49.82;100696.03;5085218;28;20447;-67
2022/08/28 07:32:07;;;;;;;4.40;2.00;;;;;;;23.23;47.33;100687.34;5090270;28;20618;-67
2022/08/28 07:34:37;;;;;;;6.37;1.90;;;;;;;22.82;46.70;100690.31;5075691;28;20440;-66
2022/08/28 07:37:06;;;;;;;9.03;3.20;;;;;;;22.79;47.30;100685.28;5071406;28;20507;-66
2022/08/28 07:39:33;;;;;;;6.27;1.87;;;;;;;22.12;48.46;100687.91;5077631;28;20531;-66
2022/08/28 07:42:00;;;;;;;7.93;2.50;;;;;;;22.18;48.09;100684.34;5079795;28;20491;-66
2022/08/28 07:47:12;;;;;;;10.70;3.47;;;;;;;21.99;49.11;100689.56;5079723;28;20572;-67
2022/08/28 07:49:40;;;;;;;13.60;3.27;;;;;;;21.65;49.56;100695.94;5080724;28;20906;-67
2022/08/28 07:52:08;;;;;;;9.20;2.63;;;;;;;21.43;49.71;100695.16;5096920;28;20581;-67
2022/08/28 07:54:35;;;;;;;7.00;3.00;;;;;;;21.44;49.29;100696.84;5094659;28;20457;-67
2022/08/28 07:57:02;;;;;;;16.00;3.60;;;;;;;22.10;48.19;100695.44;5083763;28;20554;-67
2022/08/28 07:59:30;;;;;;;8.67;2.70;;;;;;;22.93;46.45;100695.97;5076355;28;20460;-67
2022/08/28 08:01:57;;;;;;;7.47;2.73;;;;;;;21.73;48.33;100690.28;5080013;28;20468;-67
2022/08/28 08:04:25;;;;;;;6.30;2.83;;;;;;;21.13;49.14;100706.28;5081019;28;21000;-67
2022/08/28 08:06:52;;;;;;;7.03;2.50;;;;;;;23.37;45.14;100701.78;5065648;28;20485;-67
2022/08/28 08:09:20;;;;;;;6.47;1.67;;;;;;;24.21;42.97;100697.22;5063954;28;20449;-66
2022/08/28 08:11:48;;;;;;;7.70;2.73;;;;;;;24.20;43.12;100702.91;5065021;28;20496;-67
2022/08/28 08:14:15;;;;;;;6.03;2.40;;;;;;;24.92;40.62;100700.69;5071381;28;20933;-67
2022/08/28 08:16:45;;;;;;;4.27;2.03;;;;;;;26.93;37.55;100707.19;5062401;28;20472;-66
2022/08/28 08:19:13;;;;;;;6.97;2.67;;;;;;;28.00;34.48;100702.38;5069416;28;20925;-67
2022/08/28 08:21:41;;;;;;;4.90;2.20;;;;;;;27.76;34.33;100705.19;5070765;28;20477;-67
2022/08/28 08:24:08;;;;;;;6.43;2.10;;;;;;;28.90;33.11;100711.69;5079422;28;20488;-67
2022/08/28 08:26:35;;;;;;;8.03;3.30;;;;;;;29.04;32.04;100709.41;5079145;28;20493;-68
2022/08/28 08:29:02;;;;;;;6.50;2.40;;;;;;;29.41;30.71;100716.31;5079430;28;20443;-67
2022/08/28 08:31:31;;;;;;;5.30;2.37;;;;;;;28.88;31.50;100711.09;5079150;28;20480;-67
2022/08/28 08:34:00;;;;;;;5.47;1.90;;;;;;;26.82;35.64;100710.75;5071295;28;20819;-67
2022/08/28 08:36:28;;;;;;;7.80;2.87;;;;;;;25.40;38.51;100706.56;5079899;28;20492;-67
2022/08/28 08:38:55;;;;;;;7.83;2.13;;;;;;;24.40;40.82;100713.72;5079815;28;20849;-67
2022/08/28 08:41:30;;;;;;;6.77;2.00;;;;;;;23.94;40.93;100710.22;5079584;28;21037;-67
2022/08/28 08:44:00;;;;;;;6.50;2.23;;;;;;;23.57;41.73;100706.34;5080448;28;20481;-67
2022/08/28 08:46:32;;;;;;;8.70;2.23;;;;;;;23.88;41.22;100713.81;5075236;28;20486;-68
2022/08/28 08:49:03;;;;;;;6.80;2.80;;;;;;;22.90;43.59;100715.47;5073148;28;20450;-66
2022/08/28 08:51:39;;;;;;;12.87;3.00;;;;;;;21.93;45.94;100719.47;5059174;28;20483;-68
2022/08/28 08:54:10;;;;;;;4.90;2.20;;;;;;;22.28;45.35;100714.78;5060305;28;20809;-67
2022/08/28 08:56:38;;;;;;;5.90;2.90;;;;;;;24.66;39.91;100711.88;5077306;28;20475;-68
2022/08/28 08:59:08;;;;;;;5.43;2.40;;;;;;;27.24;35.17;100713.38;5080203;28;20441;-67
2022/08/28 09:01:39;;;;;;;7.77;2.33;;;;;;;29.09;32.52;100716.91;5078626;28;20531;-68
2022/08/28 09:04:28;;;;;;;4.33;2.60;;;;;;;29.08;31.79;100720.75;5079638;28;20489;-68
2022/08/28 09:06:59;;;;;;;6.40;2.10;;;;;;;27.20;34.65;100717.66;5078755;28;20932;-67
2022/08/28 09:09:30;;;;;;;5.97;2.23;;;;;;;25.46;37.37;100713.88;5073899;28;20450;-67
2022/08/28 09:11:59;;;;;;;6.37;2.30;;;;;;;24.05;40.15;100722.34;5065930;28;20492;-67
2022/08/28 09:14:35;;;;;;;7.07;2.83;;;;;;;22.80;42.18;100717.78;5078603;28;20449;-67
2022/08/28 09:17:03;;;;;;;11.60;3.27;;;;;;;22.38;42.25;100720.69;5060126;28;20508;-67
2022/08/28 09:19:31;;;;;;;5.40;2.13;;;;;;;23.66;40.89;100715.94;5079829;28;20432;-67
2022/08/28 09:21:58;;;;;;;9.03;2.60;;;;;;;23.99;38.96;100729.50;5078236;28;20887;-67
2022/08/28 09:24:27;;;;;;;5.33;2.63;;;;;;;27.10;34.17;100720.19;5065664;28;20488;-67
2022/08/28 09:26:56;;;;;;;5.93;2.80;;;;;;;29.32;30.00;100726.06;5068668;28;20477;-67
2022/08/28 09:29:30;;;;;;;5.20;2.20;;;;;;;28.97;30.08;100725.25;5070571;28;20462;-66
2022/08/28 09:31:57;;;;;;;8.67;2.70;;;;;;;30.58;27.14;100719.56;5074319;28;20501;-66
2022/08/28 09:34:31;;;;;;;3.70;1.93;;;;;;;29.84;27.91;100720.16;5082604;28;20446;-68
2022/08/28 09:36:59;;;;;;;5.60;2.73;;;;;;;26.24;33.03;100723.22;5081035;28;20877;-67
2022/08/28 09:39:28;;;;;;;5.20;2.10;;;;;;;26.50;33.87;100731.06;5087688;28;20474;-67
2022/08/28 09:45:03;;;;;;;4.97;2.40;;;;;;;29.27;29.33;100724.91;5083070;28;20502;-67
2022/08/28 09:47:52;;;;;;;3.80;1.90;;;;;;;27.31;31.80;100716.88;5094367;28;20530;-67
2022/08/28 09:50:31;;;;;;;3.40;2.17;;;;;;;27.58;31.82;100724.56;5080966;28;20520;-68
2022/08/28 09:52:59;;;;;;;6.93;2.37;;;;;;;25.63;35.42;100731.38;5083002;28;20453;-67
2022/08/28 09:55:31;;;;;;;4.77;2.23;;;;;;;24.77;37.04;100719.34;5081344;28;20466;-67
2022/08/28 09:57:58;;;;;;;5.80;2.63;;;;;;;27.40;33.41;100720.09;5093767;28;20469;-67
2022/08/28 10:00:25;;;;;;;5.23;2.10;;;;;;;29.29;28.90;100717.22;5086468;28;20955;-67
2022/08/28 10:02:57;;;;;;;5.53;2.40;;;;;;;27.75;30.92;100720.00;5086549;28;20457;-67
2022/08/28 10:05:35;;;;;;;5.70;2.37;;;;;;;27.26;31.60;100721.38;5082347;28;20555;-67
2022/08/28 10:08:07;;;;;;;4.37;2.43;;;;;;;28.53;29.80;100714.88;5097189;28;20503;-68
2022/08/28 10:10:39;;;;;;;4.13;1.87;;;;;;;28.05;29.56;100721.72;5092023;28;20473;-67
2022/08/28 10:13:10;;;;;;;5.00;2.40;;;;;;;24.57;36.35;100722.25;5103101;28;20565;-67
2022/08/28 10:15:51;;;;;;;7.63;2.20;;;;;;;26.57;32.58;100725.47;5091517;28;20526;-67
2022/08/28 10:18:29;;;;;;;4.87;2.70;;;;;;;27.74;31.42;100723.84;5089902;28;20527;-68
2022/08/28 10:21:03;;;;;;;4.20;2.23;;;;;;;28.41;29.85;100716.88;5091158;28;20504;-67
2022/08/28 10:23:40;;;;;;;5.80;1.90;;;;;;;28.43;28.93;100719.38;5087332;28;20533;-68
2022/08/28 10:26:18;;;;;;;6.83;2.33;;;;;;;27.72;31.25;100720.47;5094958;28;20826;-68
2022/08/28 10:28:51;;;;;;;4.43;2.17;;;;;;;28.11;30.86;100711.66;5094395;28;20449;-68
2022/08/28 10:31:20;;;;;;;3.73;2.20;;;;;;;27.44;31.56;100721.25;5086859;28;20477;-68
2022/08/28 10:34:05;;;;;;;7.47;2.87;;;;;;;26.00;33.65;100720.38;5090821;28;20457;-68
2022/08/28 10:36:35;;;;;;;4.80;1.90;;;;;;;27.12;31.91;100721.63;5087451;28;20477;-68
2022/08/28 10:39:12;;;;;;;5.80;2.00;;;;;;;27.67;30.77;100722.28;5101101;28;20449;-67
2022/08/28 10:41:44;;;;;;;8.60;2.50;;;;;;;25.64;34.10;100719.34;5081030;28;20542;-67
2022/08/28 10:44:16;;;;;;;9.33;2.67;;;;;;;26.96;32.80;100711.34;5081686;28;20489;-68
2022/08/28 10:46:45;;;;;;;5.23;1.87;;;;;;;28.46;30.05;100716.13;5081291;28;20486;-68
2022/08/28 10:49:20;;;;;;;5.50;2.10;;;;;;;28.40;30.13;100709.72;5082319;28;20645;-68
2022/08/28 10:51:50;;;;;;;7.17;2.60;;;;;;;28.43;29.80;100713.88;5080541;28;20474;-68
2022/08/28 10:54:25;;;;;;;4.60;1.87;;;;;;;27.90;30.95;100708.50;5080570;28;20925;-68
2022/08/28 10:56:55;;;;;;;5.63;2.20;;;;;;;27.23;31.65;100714.44;5081124;28;20493;-68
2022/08/28 10:59:22;;;;;;;9.00;2.67;;;;;;;28.41;30.69;100710.56;5081990;28;20470;-68
2022/08/28 11:01:49;;;;;;;6.30;2.13;;;;;;;27.23;31.78;100704.28;5080111;28;20518;-68
2022/08/28 11:04:19;;;;;;;6.33;2.20;;;;;;;23.67;37.15;100709.44;5081494;28;20563;-67
2022/08/28 11:06:51;;;;;;;11.03;2.30;;;;;;;24.06;36.54;100710.34;5080331;28;20472;-67
2022/08/28 11:09:29;;;;;;;5.03;1.90;;;;;;;26.54;33.07;100698.50;5082422;28;20454;-68
2022/08/28 11:11:57;;;;;;;5.80;2.27;;;;;;;28.34;30.30;100717.03;5100617;28;20480;-67
2022/08/28 11:14:30;;;;;;;4.43;2.00;;;;;;;29.54;28.30;100715.91;5100247;28;20445;-68
2022/08/28 11:17:01;;;;;;;3.53;2.10;;;;;;;27.97;30.30;100717.44;5094101;28;20533;-68
2022/08/28 11:19:48;;;;;;;6.00;2.17;;;;;;;27.83;30.41;100720.69;5101508;28;20455;-68
2022/08/28 11:22:20;;;;;;;7.73;2.40;;;;;;;26.23;32.29;100710.59;5099901;28;21285;-68
2022/08/28 11:24:53;;;;;;;6.10;2.27;;;;;;;25.79;34.11;100713.47;5096579;28;20557;-68
2022/08/28 11:27:25;;;;;;;7.47;2.77;;;;;;;26.04;32.62;100718.88;5098468;28;20507;-68
2022/08/28 11:30:28;;;;;;;6.60;2.40;;;;;;;24.72;34.33;100724.66;5089922;28;20520;-68
2022/08/28 11:33:09;;;;;;;5.10;2.00;;;;;;;25.77;32.87;100723.81;5089451;28;20456;-67
2022/08/28 11:35:45;;;;;;;5.23;2.23;;;;;;;25.38;34.14;100717.75;5087433;28;20473;-68
2022/08/28 11:38:52;;;;;;;2.97;2.00;;;;;;;25.82;32.73;100723.16;5071957;28;20433;-67